Time;durP1;ratioP1;P1;durP2;ratioP2;P2;SDS_P1;SDS_P2;PMS_P1;PMS_P2;Temp;Humidity;BMP_temperature;BMP_pressure;BME280_temperature;BME280_humidity;BME280_pressure;Samples;Min_cycle;Max_cycle;Signal;HPM_P1;HPM_P2
2021/03/24 00:01:07;;;;;;;2.78;0.45;;;23.40;87.20;;;;;;5051918;28;20017;-62
2021/03/24 00:03:34;;;;;;;1.45;0.57;;;23.60;86.60;;;;;;5051860;28;20480;-64
2021/03/24 00:06:02;;;;;;;1.95;0.57;;;23.70;84.70;;;;;;5060465;28;20449;-61
2021/03/24 00:08:29;;;;;;;2.47;0.30;;;23.90;85.80;;;;;;5054110;28;20107;-61
2021/03/24 00:10:57;;;;;;;5.78;0.85;;;23.80;79.80;;;;;;5071949;28;20028;-61
2021/03/24 00:13:24;;;;;;;2.58;0.57;;;24.30;81.70;;;;;;5071738;28;20068;-62
2021/03/24 00:15:52;;;;;;;2.88;0.60;;;24.10;84.80;;;;;;5071591;28;20486;-62
2021/03/24 00:18:23;;;;;;;1.65;0.75;;;24.10;84.30;;;;;;5071846;28;20107;-62
2021/03/24 00:20:52;;;;;;;2.70;0.52;;;23.90;79.70;;;;;;5071710;28;20029;-62
2021/03/24 00:23:20;;;;;;;4.50;0.70;;;24.20;84.50;;;;;;5054152;28;20032;-62
2021/03/24 00:25:48;;;;;;;7.53;0.88;;;24.30;85.20;;;;;;5071756;28;20028;-60
2021/03/24 00:28:16;;;;;;;2.15;0.60;;;24.10;85.90;;;;;;5071813;28;20017;-62
2021/03/24 00:30:46;;;;;;;2.78;0.55;;;24.40;80.70;;;;;;5071634;28;20143;-62
2021/03/24 00:33:17;;;;;;;1.08;0.63;;;24.60;82.30;;;;;;5071814;28;20075;-62
2021/03/24 00:35:45;;;;;;;6.07;0.63;;;24.40;85.10;;;;;;5071506;28;20488;-61
2021/03/24 00:38:14;;;;;;;1.20;0.40;;;24.50;83.10;;;;;;5071490;28;20272;-59
2021/03/24 00:40:44;;;;;;;3.20;0.65;;;24.80;79.80;;;;;;5071466;28;20028;-55
2021/03/24 00:43:12;;;;;;;8.02;0.90;;;24.90;81.70;;;;;;5053693;28;20485;-61
2021/03/24 00:45:41;;;;;;;1.90;0.47;;;24.90;78.60;;;;;;5071230;28;20027;-61
2021/03/24 00:48:16;;;;;;;1.60;0.55;;;25.00;78.10;;;;;;5071388;28;20039;-64
2021/03/24 00:50:43;;;;;;;5.30;0.63;;;25.10;77.10;;;;;;5071367;28;20021;-57
2021/03/24 00:53:11;;;;;;;6.32;0.68;;;25.10;79.90;;;;;;5071460;28;20029;-60
2021/03/24 00:55:38;;;;;;;1.40;0.47;;;25.20;76.40;;;;;;5070758;28;20418;-64
2021/03/24 00:58:06;;;;;;;4.45;0.70;;;25.30;77.70;;;;;;5071479;28;20080;-59
2021/03/24 01:00:36;;;;;;;1.45;0.47;;;25.40;75.40;;;;;;5073329;28;20035;-59
2021/03/24 01:03:04;;;;;;;2.63;0.55;;;25.30;79.50;;;;;;5075399;28;20096;-62
2021/03/24 01:05:32;;;;;;;4.68;0.75;;;25.30;79.70;;;;;;5075022;28;20047;-60
2021/03/24 01:08:06;;;;;;;6.80;0.93;;;25.30;76.30;;;;;;5075356;28;20098;-61
2021/03/24 01:10:36;;;;;;;3.17;0.50;;;25.50;75.80;;;;;;5075450;28;20020;-60
2021/03/24 01:13:04;;;;;;;3.05;0.47;;;25.50;77.70;;;;;;5074949;28;20048;-60
2021/03/24 01:15:32;;;;;;;2.25;0.60;;;25.30;76.10;;;;;;5074585;28;20577;-63
2021/03/24 01:18:00;;;;;;;5.28;0.75;;;25.20;77.40;;;;;;5057468;28;20412;-66
2021/03/24 01:20:32;;;;;;;4.00;0.60;;;24.90;79.40;;;;;;5075416;28;20115;-63
2021/03/24 01:22:58;;;;;;;;;;;24.70;80.00;;;;;;5075205;28;20170;-64
2021/03/24 01:25:27;;;;;;;5.32;0.63;;;24.70;81.50;;;;;;5075339;28;19958;-63
2021/03/24 01:27:55;;;;;;;3.55;0.77;;;24.70;78.20;;;;;;5075131;28;20398;-62
2021/03/24 01:30:27;;;;;;;1.20;0.55;;;24.70;82.10;;;;;;5075057;28;20017;-56
2021/03/24 01:32:54;;;;;;;;;;;24.70;81.70;;;;;;5075116;28;20052;-61
2021/03/24 01:35:24;;;;;;;1.05;0.50;;;24.80;80.80;;;;;;5074470;28;19909;-61
2021/03/24 01:37:52;;;;;;;2.83;0.45;;;24.80;82.60;;;;;;5074687;28;20035;-61
2021/03/24 01:40:25;;;;;;;1.17;0.52;;;24.80;80.10;;;;;;5074494;28;20031;-60
2021/03/24 01:42:58;;;;;;;6.00;0.55;;;24.90;81.90;;;;;;5074866;28;20029;-61
2021/03/24 01:45:25;;;;;;;6.03;0.50;;;25.10;80.80;;;;;;5074907;28;20479;-60
2021/03/24 01:47:54;;;;;;;1.02;0.68;;;25.20;76.60;;;;;;5075179;28;20036;-60
2021/03/24 01:50:29;;;;;;;2.25;0.98;;;25.20;78.40;;;;;;5074752;28;20027;-60
2021/03/24 01:52:56;;;;;;;2.10;1.00;;;25.20;79.80;;;;;;5074612;28;20439;-61
2021/03/24 01:55:26;;;;;;;3.17;0.85;;;25.30;79.10;;;;;;5074919;28;20400;-60
2021/03/24 01:57:54;;;;;;;2.60;1.30;;;25.20;80.00;;;;;;5074811;28;20094;-63
2021/03/24 02:00:27;;;;;;;6.93;1.80;;;25.30;81.00;;;;;;5074556;28;20065;-63
2021/03/24 02:02:54;;;;;;;1.98;1.40;;;25.40;77.00;;;;;;5074014;28;20103;-63
2021/03/24 02:05:22;;;;;;;5.75;1.70;;;25.40;78.70;;;;;;5047077;28;20048;-56
2021/03/24 02:07:51;;;;;;;3.30;1.80;;;25.50;80.10;;;;;;5052059;28;20449;-55
2021/03/24 02:10:53;;;;;;;3.67;1.80;;;25.50;77.80;;;;;;5073374;28;20060;-57
2021/03/24 02:13:23;;;;;;;2.55;1.85;;;25.70;75.90;;;;;;5041511;28;20128;-57
2021/03/24 02:15:59;;;;;;;1.75;1.20;;;25.80;77.20;;;;;;5050984;28;20064;-59
2021/03/24 02:18:34;;;;;;;6.88;1.23;;;25.90;73.70;;;;;;5069781;28;20035;-60
2021/03/24 02:21:20;;;;;;;5.25;1.83;;;25.90;75.80;;;;;;5071666;28;20036;-62
2021/03/24 02:23:57;;;;;;;3.05;1.10;;;25.90;75.50;;;;;;5066849;28;20356;-62
2021/03/24 02:26:34;;;;;;;4.20;1.10;;;25.90;78.30;;;;;;5072125;28;20029;-60
2021/03/24 02:29:05;;;;;;;1.42;1.15;;;25.90;78.80;;;;;;5071847;28;20025;-59
2021/03/24 02:31:35;;;;;;;1.80;1.20;;;25.90;76.40;;;;;;5054196;28;20052;-54
2021/03/24 02:34:10;;;;;;;3.10;1.30;;;25.90;77.20;;;;;;5049820;28;20041;-61
2021/03/24 02:36:40;;;;;;;1.85;1.25;;;25.90;76.70;;;;;;5070975;28;20032;-62
2021/03/24 02:39:13;;;;;;;2.67;1.20;;;26.00;77.60;;;;;;5071176;28;20060;-55
2021/03/24 02:41:43;;;;;;;5.30;1.65;;;26.00;78.90;;;;;;5071634;28;20090;-57
2021/03/24 02:44:12;;;;;;;1.98;1.02;;;26.10;75.10;;;;;;5066523;28;20462;-58
2021/03/24 02:46:42;;;;;;;3.22;1.50;;;26.20;78.40;;;;;;5071119;28;20463;-58
2021/03/24 02:49:12;;;;;;;1.65;1.08;;;26.20;77.60;;;;;;5070690;28;20028;-59
2021/03/24 02:51:41;;;;;;;1.13;0.95;;;26.20;77.60;;;;;;5072038;28;20056;-53
2021/03/24 02:54:16;;;;;;;1.90;1.27;;;26.20;78.10;;;;;;5067148;28;20051;-56
2021/03/24 02:56:43;;;;;;;4.32;1.00;;;26.30;77.70;;;;;;5053448;28;20024;-52
2021/03/24 02:59:11;;;;;;;0.68;0.68;;;26.20;77.30;;;;;;5071509;28;21329;-55
2021/03/24 03:01:58;;;;;;;1.98;0.90;;;26.40;74.40;;;;;;5071630;28;20325;-56
2021/03/24 03:04:52;;;;;;;1.90;1.10;;;26.30;77.40;;;;;;5066442;28;20027;-57
2021/03/24 03:07:26;;;;;;;4.57;0.90;;;26.50;75.80;;;;;;5071477;28;20125;-54
2021/03/24 03:10:18;;;;;;;1.73;0.85;;;26.50;73.20;;;;;;5070269;28;20021;-56
2021/03/24 03:13:41;;;;;;;2.95;0.90;;;26.50;76.20;;;;;;5051210;28;20068;-58
2021/03/24 03:16:20;;;;;;;1.45;0.68;;;26.50;72.20;;;;;;5064075;28;20040;-56
2021/03/24 03:19:11;;;;;;;1.17;0.68;;;26.50;77.10;;;;;;5052994;28;20430;-57
2021/03/24 03:22:16;;;;;;;0.85;0.65;;;26.50;77.60;;;;;;5071476;28;20484;-56
2021/03/24 03:24:48;;;;;;;1.92;0.65;;;26.50;77.60;;;;;;5056866;28;20148;-51
2021/03/24 03:27:20;;;;;;;1.20;0.50;;;26.50;76.70;;;;;;5070851;28;20069;-58
2021/03/24 03:29:55;;;;;;;3.90;0.70;;;26.60;76.90;;;;;;5071087;28;20395;-57
2021/03/24 03:32:24;;;;;;;4.38;1.05;;;26.70;72.90;;;;;;5065555;28;20021;-55
2021/03/24 03:34:59;;;;;;;1.13;0.80;;;26.80;73.40;;;;;;5068917;28;20040;-57
2021/03/24 03:37:28;;;;;;;2.88;0.90;;;26.90;69.10;;;;;;5070607;28;20021;-56
2021/03/24 03:39:57;;;;;;;2.35;0.65;;;26.80;72.60;;;;;;5070975;28;20031;-57
2021/03/24 03:42:25;;;;;;;1.00;0.80;;;27.00;74.30;;;;;;5068036;28;20020;-53
2021/03/24 03:44:56;;;;;;;6.25;0.60;;;26.90;70.00;;;;;;5069320;28;20029;-56
2021/03/24 03:47:24;;;;;;;3.28;0.90;;;26.90;75.20;;;;;;5069873;28;20081;-61
2021/03/24 03:49:52;;;;;;;1.83;1.08;;;26.90;74.50;;;;;;5066745;28;20111;-56
2021/03/24 03:52:41;;;;;;;0.82;0.70;;;27.00;74.80;;;;;;5068686;28;20033;-56
2021/03/24 03:55:49;;;;;;;0.73;0.45;;;26.90;75.50;;;;;;5050925;28;20478;-57
2021/03/24 03:58:38;;;;;;;1.50;0.60;;;26.90;75.30;;;;;;5052668;28;20039;-57
2021/03/24 04:01:14;;;;;;;1.70;0.57;;;27.00;74.00;;;;;;5068425;28;20036;-56
2021/03/24 04:03:58;;;;;;;3.08;0.73;;;27.00;73.20;;;;;;5065593;28;20090;-61
2021/03/24 04:07:15;;;;;;;3.75;0.65;;;27.00;72.50;;;;;;5068593;28;20076;-57
2021/03/24 04:09:44;;;;;;;0.68;0.57;;;26.90;74.20;;;;;;5047058;28;20056;-53
2021/03/24 04:12:17;;;;;;;1.45;0.40;;;26.80;73.10;;;;;;5052348;28;20036;-51
2021/03/24 04:14:46;;;;;;;0.52;0.40;;;26.70;75.20;;;;;;5050614;28;20454;-58
2021/03/24 04:17:17;;;;;;;0.77;0.50;;;26.80;70.50;;;;;;5072033;28;20028;-58
2021/03/24 04:19:50;;;;;;;2.78;0.57;;;26.70;74.80;;;;;;5071260;28;20077;-56
2021/03/24 04:22:24;;;;;;;1.55;0.80;;;26.70;75.10;;;;;;5046262;28;20048;-55
2021/03/24 04:24:54;;;;;;;0.80;0.68;;;26.60;74.70;;;;;;5069823;28;20028;-60
2021/03/24 04:27:25;;;;;;;0.60;0.40;;;26.50;70.00;;;;;;5070643;28;20135;-59
2021/03/24 04:30:13;;;;;;;0.38;0.30;;;26.50;73.40;;;;;;5067916;28;20020;-59
2021/03/24 04:32:41;;;;;;;4.03;0.50;;;26.60;72.60;;;;;;5070742;28;20033;-58
2021/03/24 04:35:17;;;;;;;0.50;0.30;;;26.50;70.70;;;;;;5051411;28;20094;-60
2021/03/24 04:37:52;;;;;;;1.52;0.43;;;26.50;75.40;;;;;;5066976;28;20074;-54
2021/03/24 04:40:41;;;;;;;1.75;0.40;;;26.50;74.60;;;;;;5063863;28;20033;-56
2021/03/24 04:43:18;;;;;;;2.10;0.50;;;26.50;75.80;;;;;;5070155;28;20119;-54
2021/03/24 04:46:02;;;;;;;1.75;0.90;;;26.40;76.90;;;;;;5070085;28;20150;-57
2021/03/24 04:48:57;;;;;;;0.82;0.43;;;26.30;71.80;;;;;;5068560;28;20032;-54
2021/03/24 04:51:29;;;;;;;2.20;1.02;;;26.50;72.50;;;;;;5067592;28;20031;-52
2021/03/24 04:54:12;;;;;;;0.50;0.35;;;26.50;71.60;;;;;;5052675;28;20032;-52
2021/03/24 04:56:42;;;;;;;0.40;0.30;;;26.50;74.80;;;;;;5070121;28;20475;-53
2021/03/24 04:59:21;;;;;;;0.47;0.20;;;26.50;76.00;;;;;;5045902;28;20188;-56
2021/03/24 05:02:04;;;;;;;3.45;1.15;;;26.40;74.20;;;;;;5067673;28;20111;-54
2021/03/24 05:04:58;;;;;;;0.75;0.40;;;26.40;77.30;;;;;;5068241;28;20036;-53
2021/03/24 05:07:50;;;;;;;0.73;0.45;;;26.50;71.20;;;;;;5070113;28;20060;-49
2021/03/24 05:10:23;;;;;;;3.08;0.60;;;26.60;74.30;;;;;;5062280;28;20157;-55
2021/03/24 05:13:09;;;;;;;3.17;1.45;;;26.50;71.00;;;;;;5070442;28;20406;-63
2021/03/24 05:15:44;;;;;;;1.17;0.63;;;26.60;75.00;;;;;;5052580;28;20059;-56
2021/03/24 05:18:14;;;;;;;1.67;1.00;;;26.60;71.60;;;;;;5051226;28;20021;-57
2021/03/24 05:20:56;;;;;;;0.80;0.32;;;26.50;75.50;;;;;;5051494;28;20029;-58
2021/03/24 05:23:24;;;;;;;0.60;0.40;;;26.50;77.20;;;;;;5051012;28;20490;-58
2021/03/24 05:26:00;;;;;;;1.80;0.88;;;26.40;73.30;;;;;;5051141;28;20052;-61
2021/03/24 05:28:43;;;;;;;1.27;0.52;;;26.50;73.10;;;;;;5050611;28;20519;-60
2021/03/24 05:31:11;;;;;;;9.75;1.60;;;26.30;73.10;;;;;;5034846;28;20037;-56
2021/03/24 05:33:48;;;;;;;1.90;0.70;;;26.40;72.20;;;;;;5050930;28;20380;-58
2021/03/24 05:36:31;;;;;;;5.18;0.70;;;26.40;72.70;;;;;;5033182;28;20427;-60
2021/03/24 05:39:19;;;;;;;1.65;0.60;;;26.40;75.50;;;;;;5032672;28;20021;-56
2021/03/24 05:41:53;;;;;;;3.60;2.08;;;26.40;76.90;;;;;;5050708;28;20026;-57
2021/03/24 05:44:48;;;;;;;2.72;0.75;;;26.40;77.10;;;;;;5050626;28;20032;-57
2021/03/24 05:47:50;;;;;;;7.32;1.88;;;27.20;64.30;;;;;;5054571;28;20017;-59
2021/03/24 05:50:29;;;;;;;1.45;0.85;;;27.20;73.10;;;;;;5054734;28;20059;-56
2021/03/24 05:53:21;;;;;;;3.78;1.85;;;27.40;52.40;;;;;;5088884;28;20479;-59
2021/03/24 05:56:17;;;;;;;6.70;1.52;;;27.50;71.20;;;;;;5074481;28;20047;-55
2021/03/24 05:59:05;;;;;;;16.90;6.55;;;27.40;62.90;;;;;;5073421;28;20490;-58
2021/03/24 06:01:51;;;;;;;9.77;5.38;;;27.30;66.90;;;;;;5073702;28;20020;-56
2021/03/24 06:04:30;;;;;;;7.10;2.65;;;27.20;64.30;;;;;;5072906;28;20033;-55
2021/03/24 06:07:03;;;;;;;8.85;2.22;;;27.50;68.20;;;;;;5090489;28;20040;-55
2021/03/24 06:10:05;;;;;;;4.63;2.42;;;27.50;61.50;;;;;;5093942;28;20024;-57
2021/03/24 06:12:52;;;;;;;;;;;27.60;59.20;;;;;;5094560;28;20096;-61
2021/03/24 06:15:50;;;;;;;3.20;2.90;;;27.70;62.00;;;;;;5079834;28;19916;-55
2021/03/24 06:18:29;;;;;;;10.35;2.65;;;27.80;60.20;;;;;;5094201;28;20016;-59
2021/03/24 06:21:15;;;;;;;6.38;3.03;;;27.90;65.90;;;;;;5094414;28;20046;-62
2021/03/24 06:24:16;;;;;;;6.03;5.25;;;27.80;63.70;;;;;;5075557;28;20024;-57
2021/03/24 06:26:53;;;;;;;4.37;4.00;;;27.80;62.00;;;;;;5093933;28;20531;-59
2021/03/24 06:29:56;;;;;;;8.63;4.78;;;27.70;61.40;;;;;;5093870;28;20283;-58
2021/03/24 06:32:48;;;;;;;12.90;6.10;;;27.70;59.80;;;;;;5094211;28;20024;-56
2021/03/24 06:35:42;;;;;;;12.43;4.85;;;27.60;62.80;;;;;;5093642;28;20051;-58
2021/03/24 06:38:25;;;;;;;4.82;2.65;;;27.50;65.80;;;;;;5075145;28;20031;-60
2021/03/24 06:41:04;;;;;;;3.22;2.13;;;27.30;65.50;;;;;;5093390;28;20378;-60
2021/03/24 06:43:44;;;;;;;10.80;2.88;;;27.40;61.90;;;;;;5094063;28;20024;-58
2021/03/24 06:46:29;;;;;;;5.70;1.60;;;27.20;69.10;;;;;;5075577;28;20035;-60
2021/03/24 06:49:10;;;;;;;9.52;1.90;;;27.20;66.90;;;;;;5093618;28;20510;-56
2021/03/24 06:52:14;;;;;;;4.43;1.58;;;27.20;65.70;;;;;;5093675;28;20020;-56
2021/03/24 06:55:21;;;;;;;2.67;1.20;;;27.20;60.60;;;;;;5093548;28;20405;-61
2021/03/24 06:58:22;;;;;;;10.02;1.65;;;27.10;67.00;;;;;;5092123;28;20627;-59
2021/03/24 07:01:07;;;;;;;9.43;2.53;;;27.00;62.90;;;;;;5093435;28;20427;-57
2021/03/24 07:03:50;;;;;;;17.48;2.85;;;27.00;63.50;;;;;;5075022;28;20494;-57
2021/03/24 07:06:54;;;;;;;3.05;1.33;;;27.00;66.50;;;;;;5093195;28;20100;-55
2021/03/24 07:09:30;;;;;;;1.67;0.80;;;27.20;58.10;;;;;;5093307;28;20032;-50
2021/03/24 07:12:25;;;;;;;2.88;1.00;;;27.10;61.40;;;;;;5075143;28;20040;-56
2021/03/24 07:15:12;;;;;;;4.10;0.90;;;27.00;58.30;;;;;;5092810;28;20106;-56
2021/03/24 07:17:52;;;;;;;4.95;1.00;;;27.30;59.70;;;;;;5092560;28;20024;-55
2021/03/24 07:20:29;;;;;;;2.38;0.80;;;27.10;60.20;;;;;;5075295;28;20107;-51
2021/03/24 07:23:32;;;;;;;2.25;1.38;;;27.30;60.70;;;;;;5093523;28;20040;-54
2021/03/24 07:26:40;;;;;;;2.25;0.80;;;27.30;57.00;;;;;;5092657;28;20520;-51
2021/03/24 07:29:31;;;;;;;1.60;0.55;;;27.20;60.80;;;;;;5092625;28;20032;-55
2021/03/24 07:32:14;;;;;;;4.43;1.00;;;27.10;59.20;;;;;;5093214;28;20043;-55
2021/03/24 07:34:54;;;;;;;8.02;3.10;;;27.00;56.50;;;;;;5092675;28;20036;-55
2021/03/24 07:37:58;;;;;;;6.88;1.02;;;27.20;55.90;;;;;;5092459;28;20098;-56
2021/03/24 07:40:43;;;;;;;10.68;1.25;;;27.20;58.30;;;;;;5085269;28;20108;-56
2021/03/24 07:43:30;;;;;;;12.68;2.00;;;27.10;57.60;;;;;;5072456;28;20482;-57
2021/03/24 07:46:21;;;;;;;5.35;1.92;;;27.10;59.90;;;;;;5054531;28;20498;-53
2021/03/24 07:49:33;;;;;;;4.25;1.20;;;27.10;57.80;;;;;;5054384;28;20105;-52
2021/03/24 07:52:48;;;;;;;7.80;1.38;;;27.10;59.50;;;;;;5072426;28;20039;-55
2021/03/24 07:55:34;;;;;;;10.60;1.60;;;26.90;57.20;;;;;;5054238;28;20048;-50
2021/03/24 07:58:37;;;;;;;13.48;2.10;;;26.80;62.30;;;;;;5053979;28;20033;-49
2021/03/24 08:01:04;;;;;;;16.10;1.75;;;26.60;64.60;;;;;;5072034;28;20023;-50
2021/03/24 08:03:41;;;;;;;4.60;1.45;;;26.50;61.00;;;;;;5071960;28;20016;-56
2021/03/24 08:06:26;;;;;;;7.22;2.00;;;26.60;62.40;;;;;;5072046;28;20066;-51
2021/03/24 08:09:10;;;;;;;9.68;2.70;;;26.60;64.40;;;;;;5071813;28;20082;-52
2021/03/24 08:11:38;;;;;;;6.07;2.13;;;26.50;65.20;;;;;;5071386;28;20036;-54
2021/03/24 08:14:26;;;;;;;6.32;1.50;;;26.50;62.80;;;;;;5068174;28;20037;-53
2021/03/24 08:17:06;;;;;;;6.05;1.83;;;26.40;63.50;;;;;;5071662;28;20029;-58
2021/03/24 08:20:10;;;;;;;8.52;1.98;;;26.40;64.50;;;;;;5053192;28;20074;-51
2021/03/24 08:22:46;;;;;;;13.38;2.58;;;26.40;63.00;;;;;;5071795;28;20024;-56
2021/03/24 08:25:38;;;;;;;9.85;2.42;;;26.20;67.10;;;;;;5072213;28;20027;-50
2021/03/24 08:28:17;;;;;;;6.95;2.60;;;26.20;64.30;;;;;;5025328;28;20040;-53
2021/03/24 08:31:20;;;;;;;7.80;3.72;;;26.20;63.10;;;;;;5072160;28;20028;-54
2021/03/24 08:33:54;;;;;;;16.42;3.25;;;26.20;72.60;;;;;;5071496;28;20028;-53
2021/03/24 08:36:30;;;;;;;7.25;1.58;;;26.10;71.60;;;;;;5072237;28;20038;-59
2021/03/24 08:39:18;;;;;;;3.90;2.55;;;26.00;62.00;;;;;;5071837;28;20020;-61
2021/03/24 08:42:11;;;;;;;5.72;2.22;;;25.90;68.80;;;;;;5071868;28;20024;-59
2021/03/24 08:45:02;;;;;;;8.50;2.20;;;25.90;69.80;;;;;;5072049;28;20035;-54
2021/03/24 08:47:41;;;;;;;6.25;1.95;;;25.80;65.20;;;;;;5071716;28;20028;-59
2021/03/24 08:50:31;;;;;;;4.35;2.05;;;25.70;69.90;;;;;;5071663;28;20029;-59
2021/03/24 08:53:21;;;;;;;5.63;1.50;;;25.60;66.10;;;;;;5071792;28;20044;-57
2021/03/24 08:56:12;;;;;;;8.07;2.38;;;25.50;70.70;;;;;;5071520;28;20039;-59
2021/03/24 08:58:49;;;;;;;2.42;1.50;;;25.40;69.00;;;;;;5053537;28;20472;-54
2021/03/24 09:01:49;;;;;;;6.18;1.42;;;25.40;71.00;;;;;;5071832;28;20059;-57
2021/03/24 09:04:37;;;;;;;4.90;1.40;;;25.30;71.10;;;;;;5071599;28;20021;-56
2021/03/24 09:07:19;;;;;;;2.17;1.20;;;25.20;66.80;;;;;;5071407;28;20052;-56
2021/03/24 09:10:00;;;;;;;;;;;25.20;67.00;;;;;;5071640;28;20057;-60
2021/03/24 09:12:33;;;;;;;3.13;1.38;;;25.20;65.70;;;;;;5071626;28;19908;-54
2021/03/24 09:15:11;;;;;;;3.47;1.30;;;25.20;69.00;;;;;;5071796;28;20032;-62
2021/03/24 09:17:50;;;;;;;6.63;1.48;;;25.20;67.60;;;;;;5053202;28;20070;-57
2021/03/24 09:20:31;;;;;;;7.78;1.88;;;25.20;66.80;;;;;;5071479;28;20063;-57
2021/03/24 09:23:35;;;;;;;3.53;1.77;;;25.20;66.20;;;;;;5075519;28;20020;-53
2021/03/24 09:26:23;;;;;;;2.92;1.27;;;25.20;66.80;;;;;;5075337;28;20025;-60
2021/03/24 09:29:28;;;;;;;4.97;1.77;;;25.10;70.00;;;;;;5075126;28;20037;-54
2021/03/24 09:32:02;;;;;;;3.95;2.08;;;25.10;67.20;;;;;;5075630;28;20063;-54
2021/03/24 09:34:57;;;;;;;7.60;1.73;;;25.00;72.90;;;;;;5075561;28;20040;-60
2021/03/24 09:37:43;;;;;;;7.35;2.08;;;25.00;66.80;;;;;;5075484;28;20487;-55
2021/03/24 09:40:30;;;;;;;5.65;1.50;;;25.00;68.10;;;;;;5057923;28;20152;-62
2021/03/24 09:43:00;;;;;;;6.45;1.55;;;24.90;74.90;;;;;;5075399;28;20025;-65
2021/03/24 09:45:36;;;;;;;9.20;2.03;;;24.70;76.50;;;;;;5063663;28;20025;-58
2021/03/24 09:48:14;;;;;;;8.48;2.47;;;24.70;75.70;;;;;;5073317;28;20055;-58
2021/03/24 09:51:03;;;;;;;9.57;2.97;;;24.60;76.60;;;;;;5069246;28;20028;-59
2021/03/24 09:53:32;;;;;;;21.52;5.03;;;24.60;78.00;;;;;;5073804;28;20024;-55
2021/03/24 09:56:15;;;;;;;21.17;4.18;;;24.50;75.00;;;;;;5072932;28;20036;-60
2021/03/24 09:59:01;;;;;;;28.17;5.45;;;24.50;76.40;;;;;;5071387;28;20035;-58
2021/03/24 10:01:54;;;;;;;16.52;4.70;;;24.50;77.80;;;;;;5067973;28;20080;-55
2021/03/24 10:04:45;;;;;;;16.45;4.43;;;24.50;77.90;;;;;;5071171;28;20422;-58
2021/03/24 10:07:26;;;;;;;15.43;3.65;;;24.40;77.10;;;;;;5072812;28;20048;-64
2021/03/24 10:10:08;;;;;;;15.63;4.38;;;24.40;77.30;;;;;;5072848;28;20016;-57
2021/03/24 10:12:45;;;;;;;14.50;4.28;;;24.40;76.50;;;;;;5070993;28;20032;-53
2021/03/24 10:15:21;;;;;;;15.65;4.60;;;24.40;78.90;;;;;;5072543;28;20474;-59
2021/03/24 10:17:51;;;;;;;11.82;3.30;;;24.40;78.10;;;;;;5072139;28;20013;-59
2021/03/24 10:20:19;;;;;;;14.15;3.85;;;24.30;78.00;;;;;;5049750;28;21065;-55
2021/03/24 10:22:53;;;;;;;12.07;3.65;;;24.30;79.70;;;;;;5071537;28;20017;-57
2021/03/24 10:25:35;;;;;;;15.70;3.83;;;24.30;76.80;;;;;;5053481;28;20016;-60
2021/03/24 10:28:34;;;;;;;11.55;3.55;;;24.20;78.20;;;;;;5071481;28;20550;-57
2021/03/24 10:31:41;;;;;;;10.88;3.78;;;24.20;79.50;;;;;;5024229;28;20036;-61
2021/03/24 10:34:43;;;;;;;11.27;3.75;;;24.10;79.90;;;;;;5042977;28;20446;-56
2021/03/24 10:37:32;;;;;;;9.85;3.22;;;24.10;80.10;;;;;;5056182;28;20036;-58
2021/03/24 10:40:21;;;;;;;9.35;3.22;;;24.10;77.30;;;;;;5070585;28;20060;-61
2021/03/24 10:43:04;;;;;;;5.80;2.53;;;24.10;79.60;;;;;;5072718;28;20459;-53
2021/03/24 10:45:44;;;;;;;8.57;3.42;;;24.10;78.70;;;;;;5051495;28;20426;-57
2021/03/24 10:48:22;;;;;;;12.88;3.55;;;24.10;78.90;;;;;;5053941;28;20047;-58
2021/03/24 10:51:18;;;;;;;8.60;3.83;;;24.10;79.40;;;;;;5067828;28;20387;-64
2021/03/24 10:53:49;;;;;;;8.15;3.85;;;24.10;79.60;;;;;;5070942;28;20032;-58
2021/03/24 10:56:34;;;;;;;13.32;5.13;;;24.00;78.70;;;;;;5071525;28;20467;-57
2021/03/24 10:59:15;;;;;;;16.27;4.43;;;24.00;80.50;;;;;;5072085;28;20502;-59
2021/03/24 11:02:06;;;;;;;11.82;3.53;;;23.90;80.50;;;;;;5067591;28;20021;-58
2021/03/24 11:04:38;;;;;;;14.63;4.25;;;23.90;80.50;;;;;;5071860;28;20025;-51
2021/03/24 11:07:20;;;;;;;10.68;4.00;;;23.90;80.10;;;;;;5051261;28;20052;-67
2021/03/24 11:09:46;;;;;;;;;;;23.90;80.20;;;;;;5070724;28;20059;-62
2021/03/24 11:12:17;;;;;;;12.02;3.80;;;23.90;80.10;;;;;;5049814;28;20303;-57
2021/03/24 11:15:12;;;;;;;10.80;3.00;;;23.90;80.20;;;;;;5071810;28;20432;-56
2021/03/24 11:17:46;;;;;;;6.90;3.22;;;23.80;81.20;;;;;;5072557;28;20020;-63
2021/03/24 11:20:35;;;;;;;7.20;3.22;;;23.80;79.20;;;;;;5050062;28;20036;-54
2021/03/24 11:23:09;;;;;;;10.27;3.95;;;23.80;81.30;;;;;;5071338;28;20056;-62
2021/03/24 11:25:56;;;;;;;7.30;3.30;;;23.80;81.30;;;;;;5054267;28;20024;-59
2021/03/24 11:28:36;;;;;;;7.07;2.92;;;23.70;80.70;;;;;;5070476;28;20413;-62
2021/03/24 11:31:17;;;;;;;7.07;3.25;;;23.70;80.60;;;;;;5048883;28;20017;-56
2021/03/24 11:34:10;;;;;;;10.57;3.20;;;23.70;79.60;;;;;;5071217;28;20474;-63
2021/03/24 11:36:51;;;;;;;7.40;2.78;;;23.70;81.00;;;;;;5069203;28;20021;-58
2021/03/24 11:39:31;;;;;;;7.20;2.67;;;23.70;80.50;;;;;;5053324;28;20021;-56
2021/03/24 11:42:11;;;;;;;9.55;2.70;;;23.70;81.10;;;;;;5065630;28;20151;-62
2021/03/24 11:44:39;;;;;;;7.13;3.03;;;23.70;81.10;;;;;;5069564;28;20021;-54
2021/03/24 11:47:33;;;;;;;6.93;2.75;;;23.60;82.50;;;;;;5068926;28;20020;-63
2021/03/24 11:50:45;;;;;;;7.35;2.90;;;23.60;82.40;;;;;;5023396;28;20043;-54
2021/03/24 11:53:22;;;;;;;;;;;23.60;83.50;;;;;;5061262;28;20033;-54
2021/03/24 11:56:32;;;;;;;8.73;2.78;;;23.50;83.20;;;;;;5070203;28;19912;-54
2021/03/24 11:59:23;;;;;;;9.98;3.22;;;23.40;83.90;;;;;;5029105;28;20048;-56
2021/03/24 12:02:20;;;;;;;9.48;2.72;;;23.40;84.10;;;;;;5066800;28;20035;-53
2021/03/24 12:05:15;;;;;;;7.85;2.75;;;23.40;83.90;;;;;;5067629;28;20479;-52
2021/03/24 12:07:49;;;;;;;11.27;2.92;;;23.40;83.40;;;;;;5050189;28;20475;-64
2021/03/24 12:10:38;;;;;;;5.93;2.47;;;23.40;83.90;;;;;;5045730;28;20032;-61
2021/03/24 12:13:29;;;;;;;10.07;3.25;;;23.40;84.60;;;;;;5070018;28;20590;-61
2021/03/24 12:16:05;;;;;;;8.65;2.38;;;23.30;83.60;;;;;;5068805;28;20123;-55
2021/03/24 12:18:42;;;;;;;6.00;3.00;;;23.30;81.90;;;;;;5070538;28;20021;-60
2021/03/24 12:21:23;;;;;;;7.53;2.53;;;23.30;83.40;;;;;;5066123;28;20054;-52
2021/03/24 12:23:54;;;;;;;6.68;2.85;;;23.30;84.00;;;;;;5068481;28;20037;-51
2021/03/24 12:26:33;;;;;;;6.47;2.35;;;23.30;82.70;;;;;;5069480;28;20025;-57
2021/03/24 12:29:14;;;;;;;9.30;2.60;;;23.30;84.20;;;;;;5070665;28;20036;-51
2021/03/24 12:32:15;;;;;;;5.65;2.38;;;23.30;83.10;;;;;;5065198;28;20062;-55
2021/03/24 12:34:46;;;;;;;9.20;2.70;;;23.30;84.50;;;;;;5069995;28;20119;-55
2021/03/24 12:37:44;;;;;;;6.57;2.47;;;23.30;84.00;;;;;;5069598;28;20030;-52
2021/03/24 12:40:12;;;;;;;3.17;2.05;;;23.30;83.20;;;;;;5066408;28;20032;-56
2021/03/24 12:42:40;;;;;;;7.30;2.63;;;23.20;84.00;;;;;;5069285;28;20089;-53
2021/03/24 12:45:27;;;;;;;6.78;2.45;;;23.20;83.90;;;;;;5068098;28;20021;-56
2021/03/24 12:48:08;;;;;;;6.65;2.30;;;23.20;84.00;;;;;;5069261;28;20029;-59
2021/03/24 12:50:49;;;;;;;8.15;2.85;;;23.10;84.20;;;;;;5063492;28;20032;-55
2021/03/24 12:53:26;;;;;;;3.75;2.30;;;23.10;85.00;;;;;;5069250;28;20024;-52
2021/03/24 12:56:14;;;;;;;8.20;2.40;;;23.10;84.80;;;;;;5069880;28;20029;-54
2021/03/24 12:58:51;;;;;;;6.03;2.35;;;23.10;84.80;;;;;;5075993;28;20056;-57
2021/03/24 13:01:55;;;;;;;9.35;2.38;;;23.10;84.90;;;;;;5076075;28;20024;-59
2021/03/24 13:04:45;;;;;;;4.82;2.30;;;23.00;84.70;;;;;;5076072;28;20111;-58
2021/03/24 13:07:24;;;;;;;3.33;2.42;;;23.00;85.10;;;;;;5076170;28;20398;-55
2021/03/24 13:10:00;;;;;;;8.82;2.97;;;23.00;84.50;;;;;;5070304;28;20025;-57
2021/03/24 13:12:54;;;;;;;5.82;2.35;;;22.90;85.30;;;;;;5072587;28;20131;-56
2021/03/24 13:15:48;;;;;;;12.10;2.13;;;22.90;84.30;;;;;;5035897;28;20048;-56
2021/03/24 13:18:49;;;;;;;3.88;2.38;;;22.90;83.50;;;;;;5073934;28;20501;-55
2021/03/24 13:21:42;;;;;;;6.03;1.90;;;22.90;83.80;;;;;;5072832;28;20036;-55
2021/03/24 13:24:51;;;;;;;8.38;2.53;;;22.80;83.30;;;;;;5071847;28;20146;-58
2021/03/24 13:27:42;;;;;;;5.82;2.50;;;22.80;84.70;;;;;;5073471;28;20033;-56
2021/03/24 13:30:40;;;;;;;5.75;2.13;;;22.70;83.90;;;;;;5072005;28;20028;-54
2021/03/24 13:33:15;;;;;;;5.75;2.10;;;22.70;84.90;;;;;;5071197;28;20016;-56
2021/03/24 13:35:48;;;;;;;4.15;2.40;;;22.70;84.80;;;;;;5069095;28;20398;-60
2021/03/24 13:38:38;;;;;;;5.60;2.35;;;22.70;84.50;;;;;;5073942;28;20025;-57
2021/03/24 13:41:08;;;;;;;3.90;2.08;;;22.60;85.20;;;;;;5069066;28;20120;-57
2021/03/24 13:43:44;;;;;;;4.40;2.20;;;22.60;84.50;;;;;;5073634;28;20028;-54
2021/03/24 13:46:22;;;;;;;6.00;2.30;;;22.60;85.30;;;;;;5066942;28;20036;-63
2021/03/24 13:49:15;;;;;;;7.28;2.20;;;22.60;85.30;;;;;;5073681;28;20021;-59
2021/03/24 13:51:44;;;;;;;4.47;1.90;;;22.60;85.70;;;;;;5071376;28;20109;-57
2021/03/24 13:54:32;;;;;;;5.18;2.05;;;22.50;84.90;;;;;;5073299;28;20040;-62
2021/03/24 13:57:31;;;;;;;4.90;2.50;;;22.50;85.90;;;;;;5073619;28;20060;-60
2021/03/24 14:00:14;;;;;;;4.93;2.30;;;22.50;85.90;;;;;;5071836;28;20123;-57